createdAt,value
2018-12-03T00:01:42.805Z,1.62
2018-12-03T00:04:13.779Z,1.77
2018-12-03T00:06:41.821Z,1.55
2018-12-03T00:09:10.054Z,1.75
2018-12-03T00:11:38.243Z,1.27
2018-12-03T00:14:06.302Z,1.42
2018-12-03T00:16:34.314Z,1.32
2018-12-03T00:19:02.338Z,1.30
2018-12-03T00:21:30.365Z,1.12
2018-12-03T00:23:58.386Z,1.40
2018-12-03T00:26:26.399Z,1.10
2018-12-03T00:28:54.428Z,1.15
2018-12-03T00:31:22.446Z,0.90
2018-12-03T00:33:50.469Z,0.90
2018-12-03T00:36:18.486Z,0.90
2018-12-03T00:38:46.511Z,0.75
2018-12-03T00:41:14.529Z,1.10
2018-12-03T00:43:42.555Z,0.80
2018-12-03T00:46:10.578Z,0.70
2018-12-03T00:48:38.609Z,0.75
2018-12-03T00:51:06.614Z,1.02
2018-12-03T00:53:34.646Z,0.78
2018-12-03T00:56:02.682Z,1.20
2018-12-03T00:58:30.710Z,0.80
2018-12-03T01:00:58.762Z,0.70
2018-12-03T01:03:26.782Z,0.82
2018-12-03T01:05:54.798Z,0.60
2018-12-03T01:08:22.834Z,1.00
2018-12-03T01:10:50.854Z,0.78
2018-12-03T01:13:18.875Z,0.90
2018-12-03T01:15:46.901Z,0.80
2018-12-03T01:18:14.922Z,0.70
2018-12-03T01:20:42.947Z,0.80
2018-12-03T01:23:11.014Z,0.80
2018-12-03T01:25:39.082Z,0.80
2018-12-03T01:28:07.137Z,0.80
2018-12-03T01:30:35.158Z,0.85
2018-12-03T01:33:03.170Z,0.80
2018-12-03T01:35:31.209Z,0.90
2018-12-03T01:37:59.230Z,0.80
2018-12-03T01:40:27.254Z,0.72
2018-12-03T01:42:55.286Z,0.75
2018-12-03T01:45:23.310Z,0.93
2018-12-03T01:47:51.330Z,1.00
2018-12-03T01:50:19.363Z,0.80
2018-12-03T01:52:47.370Z,0.80
2018-12-03T01:55:15.390Z,0.80
2018-12-03T01:57:43.402Z,0.70
2018-12-03T02:00:14.211Z,0.70
2018-12-03T02:02:42.387Z,0.70
2018-12-03T02:05:10.582Z,0.70
2018-12-03T02:07:38.666Z,0.85
2018-12-03T02:10:11.778Z,0.98
2018-12-03T02:12:39.814Z,0.82
2018-12-03T02:15:11.197Z,0.80
2018-12-03T02:17:39.403Z,0.72
2018-12-03T02:20:09.326Z,1.00
2018-12-03T02:22:37.382Z,0.90
2018-12-03T02:25:06.201Z,0.88
2018-12-03T02:27:34.247Z,0.70
2018-12-03T02:30:02.286Z,0.88
2018-12-03T02:32:30.331Z,0.70
2018-12-03T02:34:58.359Z,0.72
2018-12-03T02:37:26.403Z,0.70
2018-12-03T02:39:54.434Z,0.80
2018-12-03T02:42:22.479Z,0.80
2018-12-03T02:44:50.518Z,0.60
2018-12-03T02:47:18.570Z,0.80
2018-12-03T02:49:46.598Z,0.70
2018-12-03T02:52:14.646Z,0.70
2018-12-03T02:54:42.682Z,0.65
2018-12-03T02:57:17.492Z,0.85
2018-12-03T02:59:45.516Z,0.60
2018-12-03T03:02:13.565Z,0.70
2018-12-03T03:04:41.602Z,0.60
2018-12-03T03:07:09.642Z,0.60
2018-12-03T03:09:37.675Z,0.78
2018-12-03T03:12:05.905Z,0.90
2018-12-03T03:14:33.922Z,0.70
2018-12-03T03:17:01.983Z,0.82
2018-12-03T03:19:30.020Z,0.70
2018-12-03T03:21:58.038Z,0.90
2018-12-03T03:24:26.063Z,0.82
2018-12-03T03:26:54.078Z,0.98
2018-12-03T03:29:22.102Z,0.70
2018-12-03T03:31:50.111Z,0.90
2018-12-03T03:34:18.131Z,1.25
2018-12-03T03:36:46.149Z,2.00
2018-12-03T03:39:14.186Z,1.65
2018-12-03T03:41:42.202Z,1.10
2018-12-03T03:44:10.228Z,1.15
2018-12-03T03:46:38.253Z,1.70
2018-12-03T03:49:06.277Z,1.92
2018-12-03T03:51:34.300Z,1.70
2018-12-03T03:54:02.327Z,1.92
2018-12-03T03:56:30.350Z,1.55
2018-12-03T03:58:58.366Z,1.45
2018-12-03T04:01:26.386Z,1.32
2018-12-03T04:03:54.409Z,1.50
2018-12-03T04:06:22.418Z,1.47
2018-12-03T04:08:50.450Z,1.50
2018-12-03T04:11:18.477Z,2.02
2018-12-03T04:13:46.491Z,1.50
2018-12-03T04:16:14.505Z,1.52
2018-12-03T04:18:42.551Z,1.65
2018-12-03T04:21:10.573Z,1.50
2018-12-03T04:23:38.585Z,1.50
2018-12-03T04:26:06.610Z,1.90
2018-12-03T04:28:34.637Z,1.65
2018-12-03T04:31:02.655Z,1.42
2018-12-03T04:33:30.677Z,1.47
2018-12-03T04:35:58.690Z,1.15
2018-12-03T04:38:26.719Z,1.35
2018-12-03T04:40:55.227Z,0.98
2018-12-03T04:43:23.246Z,1.75
2018-12-03T04:45:51.274Z,1.20
2018-12-03T04:48:19.295Z,1.20
2018-12-03T04:50:47.331Z,1.50
2018-12-03T04:53:15.343Z,1.10
2018-12-03T04:55:50.225Z,1.35
2018-12-03T04:58:18.239Z,1.32
2018-12-03T05:00:46.266Z,0.98
2018-12-03T05:03:14.278Z,1.17
2018-12-03T05:05:42.302Z,0.90
2018-12-03T05:08:10.326Z,1.12
2018-12-03T05:10:38.353Z,1.12
2018-12-03T05:13:06.370Z,0.82
2018-12-03T05:15:34.394Z,0.98
2018-12-03T05:18:02.490Z,0.90
2018-12-03T05:20:30.514Z,0.72
2018-12-03T05:22:58.538Z,0.93
2018-12-03T05:25:26.570Z,1.00
2018-12-03T05:27:54.586Z,1.05
2018-12-03T05:30:22.603Z,0.80
2018-12-03T05:32:50.626Z,0.90
2018-12-03T05:35:22.173Z,0.90
2018-12-03T05:37:50.229Z,1.40
2018-12-03T05:40:19.663Z,0.80
2018-12-03T05:42:47.686Z,1.25
2018-12-03T05:45:15.706Z,1.00
2018-12-03T05:47:43.728Z,1.10
2018-12-03T05:50:14.045Z,1.00
2018-12-03T05:52:42.864Z,0.90
2018-12-03T05:55:11.850Z,1.00
2018-12-03T05:57:46.534Z,1.00
2018-12-03T06:00:20.182Z,1.00
2018-12-03T06:02:48.203Z,1.62
2018-12-03T06:05:16.422Z,1.17
2018-12-03T06:07:44.509Z,1.12
2018-12-03T06:10:15.410Z,1.30
2018-12-03T06:12:43.447Z,1.42
2018-12-03T06:15:12.410Z,1.17
2018-12-03T06:17:40.478Z,1.25
2018-12-03T06:20:10.150Z,1.37
2018-12-03T06:22:38.178Z,1.95
2018-12-03T06:25:12.230Z,1.05
2018-12-03T06:27:40.241Z,0.93
2018-12-03T06:30:12.286Z,0.80
2018-12-03T06:32:40.374Z,0.90
2018-12-03T06:35:09.686Z,1.02
2018-12-03T06:37:37.713Z,0.85
2018-12-03T06:40:10.558Z,0.98
2018-12-03T06:42:38.582Z,1.00
2018-12-03T06:45:08.475Z,0.90
2018-12-03T06:47:36.534Z,0.95
2018-12-03T06:50:05.666Z,1.00
2018-12-03T06:52:33.682Z,1.05
2018-12-03T06:55:01.706Z,0.90
2018-12-03T06:57:29.726Z,0.80
2018-12-03T06:59:57.751Z,0.85
2018-12-03T07:02:25.766Z,0.82
2018-12-03T07:04:53.790Z,0.82
2018-12-03T07:07:21.819Z,0.70
2018-12-03T07:09:49.859Z,0.72
2018-12-03T07:12:17.870Z,0.70
2018-12-03T07:14:45.890Z,0.95
2018-12-03T07:17:13.906Z,1.40
2018-12-03T07:19:41.927Z,0.90
2018-12-03T07:22:09.942Z,0.90
2018-12-03T07:24:37.983Z,1.00
2018-12-03T07:27:06.142Z,1.05
2018-12-03T07:29:34.175Z,0.90
2018-12-03T07:32:02.193Z,1.60
2018-12-03T07:34:30.230Z,1.37
2018-12-03T07:36:58.257Z,1.45
2018-12-03T07:39:26.278Z,1.87
2018-12-03T07:41:54.302Z,1.20
2018-12-03T07:44:22.326Z,0.98
2018-12-03T07:46:50.344Z,1.10
2018-12-03T07:49:18.369Z,1.47
2018-12-03T07:51:46.386Z,1.20
2018-12-03T07:54:14.422Z,1.27
2018-12-03T07:56:42.442Z,1.10
2018-12-03T07:59:10.458Z,1.62
2018-12-03T08:01:38.482Z,1.25
2018-12-03T08:04:06.498Z,1.85
2018-12-03T08:06:34.522Z,1.77
2018-12-03T08:09:02.567Z,1.25
2018-12-03T08:11:30.707Z,0.95
2018-12-03T08:13:58.641Z,1.00
2018-12-03T08:16:26.689Z,1.20
2018-12-03T08:18:54.735Z,1.22
2018-12-03T08:21:22.786Z,1.32
2018-12-03T08:23:55.154Z,1.20
2018-12-03T08:26:23.198Z,1.00
2018-12-03T08:28:51.238Z,1.32
2018-12-03T08:31:19.282Z,1.55
2018-12-03T08:33:47.325Z,1.72
2018-12-03T08:36:15.375Z,1.15
2018-12-03T08:38:43.414Z,1.32
2018-12-03T08:41:11.458Z,1.40
2018-12-03T08:43:39.490Z,1.62
2018-12-03T08:46:09.037Z,1.60
2018-12-03T08:48:38.758Z,1.30
2018-12-03T08:51:07.670Z,1.15
2018-12-03T08:53:35.715Z,1.40
2018-12-03T08:56:03.758Z,1.40
2018-12-03T08:58:31.799Z,1.15
2018-12-03T09:00:59.853Z,1.20
2018-12-03T09:03:29.438Z,1.35
2018-12-03T09:05:58.123Z,1.57
2018-12-03T09:08:26.170Z,1.20
2018-12-03T09:10:54.431Z,1.47
2018-12-03T09:13:23.606Z,1.60
2018-12-03T09:15:57.834Z,1.20
2018-12-03T09:18:32.786Z,1.60
2018-12-03T09:21:00.969Z,1.45
2018-12-03T09:23:29.019Z,1.45
2018-12-03T09:25:57.058Z,1.42
2018-12-03T09:28:25.114Z,1.40
2018-12-03T09:30:53.150Z,1.00
2018-12-03T09:33:21.201Z,1.15
2018-12-03T09:35:49.233Z,1.12
2018-12-03T09:38:17.282Z,1.10
2018-12-03T09:40:45.319Z,1.10
2018-12-03T09:43:13.362Z,1.50
2018-12-03T09:45:41.410Z,1.20
2018-12-03T09:48:09.458Z,1.87
2018-12-03T09:50:37.506Z,1.90
2018-12-03T09:53:05.785Z,1.80
2018-12-03T09:55:34.043Z,1.40
2018-12-03T09:58:04.840Z,2.33
2018-12-03T10:00:32.914Z,1.80
2018-12-03T10:03:07.734Z,1.70
2018-12-03T10:05:38.503Z,1.42
2018-12-03T10:08:06.606Z,1.55
2018-12-03T10:10:34.686Z,1.55
2018-12-03T10:13:06.974Z,1.52
2018-12-03T10:15:35.062Z,1.67
2018-12-03T10:18:03.533Z,1.40
2018-12-03T10:20:31.676Z,1.77
2018-12-03T10:22:59.746Z,1.92
2018-12-03T10:25:27.827Z,1.55
2018-12-03T10:28:00.483Z,1.62
2018-12-03T10:30:28.774Z,1.07
2018-12-03T10:32:56.843Z,1.47
2018-12-03T10:35:32.511Z,1.40
2018-12-03T10:38:08.590Z,1.30
2018-12-03T10:40:40.470Z,1.10
2018-12-03T10:43:09.991Z,0.90
2018-12-03T10:45:38.074Z,0.93
2018-12-03T10:48:06.442Z,1.17
2018-12-03T10:50:34.542Z,1.10
2018-12-03T10:53:02.621Z,1.00
2018-12-03T10:55:30.798Z,0.90
2018-12-03T10:57:58.882Z,0.80
2018-12-03T11:00:32.501Z,0.82
2018-12-03T11:03:05.743Z,0.80
2018-12-03T11:05:39.439Z,0.80
2018-12-03T11:08:07.527Z,1.05
2018-12-03T11:10:39.294Z,0.80
2018-12-03T11:13:07.372Z,0.80
2018-12-03T11:15:35.445Z,0.70
2018-12-03T11:18:04.570Z,0.60
2018-12-03T11:20:32.654Z,0.70
2018-12-03T11:23:00.730Z,0.75
2018-12-03T11:25:34.771Z,0.70
2018-12-03T11:28:05.001Z,0.80
2018-12-03T11:30:33.087Z,0.70
2018-12-03T11:33:01.162Z,0.60
2018-12-03T11:35:30.898Z,0.70
2018-12-03T11:38:09.825Z,0.70
2018-12-03T11:40:51.546Z,0.70
2018-12-03T11:43:19.922Z,0.70
2018-12-03T11:45:48.010Z,0.70
2018-12-03T11:48:16.091Z,1.00
2018-12-03T11:50:44.174Z,0.93
2018-12-03T11:53:12.246Z,0.80
2018-12-03T11:55:40.318Z,0.80
2018-12-03T11:58:08.394Z,0.70
2018-12-03T12:00:36.490Z,1.15
2018-12-03T12:03:05.026Z,0.70
2018-12-03T12:05:33.109Z,0.80
2018-12-03T12:08:01.182Z,0.93
2018-12-03T12:10:29.280Z,0.80
2018-12-03T12:12:57.350Z,0.72
2018-12-03T12:15:25.417Z,0.80
2018-12-03T12:17:53.494Z,0.80
2018-12-03T12:20:21.567Z,1.20
2018-12-03T12:22:49.654Z,0.72
2018-12-03T12:25:17.726Z,0.70
2018-12-03T12:27:50.825Z,0.80
2018-12-03T12:30:18.902Z,0.80
2018-12-03T12:32:46.974Z,0.80
2018-12-03T12:35:15.046Z,0.70
2018-12-03T12:37:43.131Z,0.90
2018-12-03T12:40:12.638Z,1.12
2018-12-03T12:42:41.343Z,1.07
2018-12-03T12:45:14.034Z,0.70
2018-12-03T12:47:42.117Z,0.70
2018-12-03T12:50:13.990Z,0.80
2018-12-03T12:52:42.186Z,0.70
2018-12-03T12:55:10.266Z,0.80
2018-12-03T12:57:38.342Z,0.80
2018-12-03T13:00:18.299Z,0.70
2018-12-03T13:02:48.652Z,1.00
2018-12-03T13:05:16.729Z,1.00
2018-12-03T13:07:44.814Z,0.80
2018-12-03T13:10:14.742Z,0.70
2018-12-03T13:12:43.247Z,0.93
2018-12-03T13:15:12.862Z,0.90
2018-12-03T13:17:44.517Z,0.90
2018-12-03T13:20:14.117Z,0.85
2018-12-03T13:22:42.150Z,1.02
2018-12-03T13:25:14.074Z,1.35
2018-12-03T13:27:42.094Z,1.05
2018-12-03T13:30:11.902Z,1.20
2018-12-03T13:32:39.940Z,1.00
2018-12-03T13:35:09.594Z,0.80
2018-12-03T13:37:37.626Z,0.70
2018-12-03T13:40:10.266Z,1.40
2018-12-03T13:42:38.679Z,0.82
2018-12-03T13:45:09.714Z,1.05
2018-12-03T13:47:37.763Z,0.80
2018-12-03T13:50:07.942Z,1.00
2018-12-03T13:52:35.960Z,0.82
2018-12-03T13:55:04.837Z,1.10
2018-12-03T13:57:32.856Z,1.10
2018-12-03T14:00:00.882Z,0.70
2018-12-03T14:02:28.914Z,0.78
2018-12-03T14:04:56.932Z,1.05
2018-12-03T14:07:33.842Z,0.70
2018-12-03T14:10:28.002Z,1.10
2018-12-03T14:13:03.413Z,1.00
2018-12-03T14:16:13.733Z,0.98
2018-12-03T14:18:52.011Z,0.90
2018-12-03T14:21:22.820Z,1.10
2018-12-03T14:23:53.198Z,1.00
2018-12-03T14:26:21.214Z,1.20
2018-12-03T14:28:49.234Z,0.82
2018-12-03T14:31:17.258Z,0.90
2018-12-03T14:33:45.266Z,0.93
2018-12-03T14:36:13.285Z,1.20
2018-12-03T14:38:41.303Z,1.17
2018-12-03T14:41:09.358Z,0.80
2018-12-03T14:43:37.382Z,0.90
2018-12-03T14:46:05.398Z,0.90
2018-12-03T14:48:33.414Z,1.00
2018-12-03T14:51:02.738Z,0.90
2018-12-03T14:53:30.754Z,0.90
2018-12-03T14:55:58.770Z,0.90
2018-12-03T14:58:26.778Z,0.82
2018-12-03T15:00:55.373Z,1.10
2018-12-03T15:03:22.826Z,0.80
2018-12-03T15:05:50.846Z,1.10
2018-12-03T15:08:18.872Z,0.80
2018-12-03T15:10:46.918Z,0.88
2018-12-03T15:13:14.963Z,0.80
2018-12-03T15:15:43.000Z,0.90
2018-12-03T15:18:11.034Z,0.90
2018-12-03T15:20:39.072Z,1.12
2018-12-03T15:23:07.122Z,0.90
2018-12-03T15:25:35.169Z,1.10
2018-12-03T15:28:03.206Z,1.00
2018-12-03T15:30:31.252Z,1.00
2018-12-03T15:32:59.287Z,0.90
2018-12-03T15:35:27.317Z,1.00
2018-12-03T15:37:55.389Z,0.80
2018-12-03T15:40:23.418Z,0.90
2018-12-03T15:42:51.467Z,1.05
2018-12-03T15:45:19.506Z,1.05
2018-12-03T15:47:47.553Z,0.93
2018-12-03T15:50:15.599Z,0.80
2018-12-03T15:52:43.642Z,0.90
2018-12-03T15:55:11.687Z,1.37
2018-12-03T15:57:39.740Z,0.70
2018-12-03T16:00:11.366Z,1.00
2018-12-03T16:02:39.444Z,0.90
2018-12-03T16:05:11.226Z,1.20
2018-12-03T16:07:39.270Z,1.12
2018-12-03T16:10:10.258Z,1.00
2018-12-03T16:12:38.278Z,1.00
2018-12-03T16:15:07.446Z,1.00
2018-12-03T16:17:35.474Z,1.27
2018-12-03T16:20:03.627Z,1.25
2018-12-03T16:22:31.647Z,1.27
2018-12-03T16:24:59.663Z,1.12
2018-12-03T16:27:27.687Z,1.30
2018-12-03T16:29:55.698Z,1.75
2018-12-03T16:32:23.726Z,1.82
2018-12-03T16:34:51.742Z,1.92
2018-12-03T16:37:19.757Z,1.40
2018-12-03T16:39:47.786Z,1.50
2018-12-03T16:42:15.803Z,1.10
2018-12-03T16:44:43.826Z,1.17
2018-12-03T16:47:11.843Z,1.32
2018-12-03T16:49:39.862Z,1.25
2018-12-03T16:52:07.880Z,1.10
2018-12-03T16:54:35.902Z,0.80
2018-12-03T16:57:03.920Z,0.70
2018-12-03T16:59:31.942Z,1.37
2018-12-03T17:01:59.954Z,0.90
2018-12-03T17:04:27.971Z,1.00
2018-12-03T17:06:55.982Z,0.70
2018-12-03T17:09:24.006Z,0.90
2018-12-03T17:11:52.022Z,0.80
2018-12-03T17:14:20.047Z,0.90
2018-12-03T17:16:48.054Z,0.70
2018-12-03T17:19:16.085Z,0.80
2018-12-03T17:21:53.314Z,0.90
2018-12-03T17:24:25.307Z,0.80
2018-12-03T17:26:53.314Z,0.85
2018-12-03T17:29:21.334Z,0.90
2018-12-03T17:31:49.353Z,1.10
2018-12-03T17:34:17.374Z,0.75
2018-12-03T17:36:45.394Z,1.30
2018-12-03T17:39:13.414Z,1.10
2018-12-03T17:41:41.435Z,1.10
2018-12-03T17:44:09.461Z,0.90
2018-12-03T17:46:37.479Z,0.98
2018-12-03T17:49:05.494Z,0.90
2018-12-03T17:51:33.575Z,1.20
2018-12-03T17:54:01.570Z,1.27
2018-12-03T17:56:29.586Z,1.20
2018-12-03T17:58:57.598Z,1.20
2018-12-03T18:01:25.637Z,1.90
2018-12-03T18:03:53.641Z,1.12
2018-12-03T18:06:21.662Z,1.30
2018-12-03T18:08:49.714Z,1.25
2018-12-03T18:11:17.755Z,1.50
2018-12-03T18:13:45.781Z,1.47
2018-12-03T18:16:13.817Z,1.47
2018-12-03T18:18:41.846Z,1.25
2018-12-03T18:21:09.891Z,1.40
2018-12-03T18:23:37.914Z,1.47
2018-12-03T18:26:05.957Z,2.05
2018-12-03T18:28:33.997Z,2.50
2018-12-03T18:31:02.042Z,2.80
2018-12-03T18:33:30.082Z,2.70
2018-12-03T18:35:58.130Z,2.80
2018-12-03T18:38:26.176Z,3.10
2018-12-03T18:40:54.215Z,2.30
2018-12-03T18:43:22.248Z,2.55
2018-12-03T18:45:50.278Z,2.80
2018-12-03T18:48:18.314Z,2.58
2018-12-03T18:50:48.977Z,3.12
2018-12-03T18:53:20.166Z,3.33
2018-12-03T18:55:47.978Z,4.10
2018-12-03T18:58:55.655Z,3.17
2018-12-03T19:01:23.152Z,2.17
2018-12-03T19:03:50.638Z,2.85
2018-12-03T19:06:18.046Z,3.98
2018-12-03T19:08:45.575Z,2.70
2018-12-03T19:11:13.083Z,2.77
2018-12-03T19:13:40.579Z,2.58
2018-12-03T19:16:08.081Z,1.35
2018-12-03T19:18:35.554Z,2.00
2018-12-03T19:21:03.041Z,1.72
2018-12-03T19:23:30.598Z,2.10
2018-12-03T19:25:58.034Z,1.30
2018-12-03T19:28:25.529Z,2.00
2018-12-03T19:30:52.950Z,1.67
2018-12-03T19:33:20.426Z,1.47
2018-12-03T19:35:47.934Z,1.95
2018-12-03T19:38:15.522Z,1.37
2018-12-03T19:40:42.947Z,1.85
2018-12-03T19:43:10.434Z,1.62
2018-12-03T19:45:37.895Z,1.77
2018-12-03T19:48:05.409Z,2.17
2018-12-03T19:50:32.978Z,1.57
2018-12-03T19:53:00.507Z,1.50
2018-12-03T19:55:28.066Z,1.37
2018-12-03T19:57:55.796Z,1.35
2018-12-03T20:00:23.304Z,1.98
2018-12-03T20:02:50.813Z,1.87
2018-12-03T20:05:18.408Z,1.57
2018-12-03T20:07:45.989Z,1.20
2018-12-03T20:10:13.559Z,1.25
2018-12-03T20:12:40.977Z,1.20
2018-12-03T20:15:08.810Z,1.50
2018-12-03T20:17:36.281Z,1.27
2018-12-03T20:20:05.399Z,1.27
2018-12-03T20:22:32.887Z,1.72
2018-12-03T20:25:00.382Z,0.85
2018-12-03T20:27:28.618Z,0.93
2018-12-03T20:29:56.114Z,1.30
2018-12-03T20:32:23.602Z,0.88
2018-12-03T20:34:51.099Z,0.90
2018-12-03T20:37:21.587Z,0.95
2018-12-03T20:39:53.750Z,0.80
2018-12-03T20:42:21.736Z,0.72
2018-12-03T20:44:49.254Z,1.05
2018-12-03T20:47:16.788Z,0.85
2018-12-03T20:49:44.440Z,0.95
2018-12-03T20:52:11.934Z,0.75
2018-12-03T20:54:39.410Z,0.80
2018-12-03T20:57:06.918Z,0.70
2018-12-03T20:59:34.404Z,0.90
2018-12-03T21:02:02.120Z,0.85
2018-12-03T21:04:29.518Z,1.07
2018-12-03T21:06:57.063Z,1.07
2018-12-03T21:09:24.557Z,1.00
2018-12-03T21:11:52.038Z,1.00
2018-12-03T21:14:20.215Z,0.90
2018-12-03T21:16:47.978Z,0.82
2018-12-03T21:19:15.458Z,1.00
2018-12-03T21:21:43.010Z,0.98
2018-12-03T21:24:10.497Z,0.93
2018-12-03T21:26:38.002Z,0.90
2018-12-03T21:29:05.441Z,0.90
2018-12-03T21:31:32.942Z,1.37
2018-12-03T21:34:00.429Z,0.80
2018-12-03T21:36:27.918Z,1.10
2018-12-03T21:38:55.506Z,0.90
2018-12-03T21:41:23.006Z,0.93
2018-12-03T21:43:50.435Z,0.93
2018-12-03T21:46:17.922Z,0.90
2018-12-03T21:48:45.493Z,1.37
2018-12-03T21:51:12.902Z,1.10
2018-12-03T21:53:40.434Z,1.20
2018-12-03T21:56:08.007Z,1.15
2018-12-03T21:58:35.570Z,1.05
2018-12-03T22:01:03.083Z,1.27
2018-12-03T22:03:30.577Z,1.00
2018-12-03T22:05:57.981Z,1.20
2018-12-03T22:08:25.398Z,1.02
2018-12-03T22:10:52.930Z,1.00
2018-12-03T22:13:20.422Z,1.37
2018-12-03T22:15:47.894Z,1.22
2018-12-03T22:18:15.376Z,1.17
2018-12-03T22:20:42.856Z,0.80
2018-12-03T22:23:10.337Z,1.10
2018-12-03T22:25:37.947Z,1.10
2018-12-03T22:28:05.423Z,0.88
2018-12-03T22:30:32.915Z,0.80
2018-12-03T22:33:00.475Z,1.00
2018-12-03T22:35:28.044Z,1.00
2018-12-03T22:37:55.614Z,0.93
2018-12-03T22:40:23.101Z,1.00
2018-12-03T22:42:50.654Z,1.05
2018-12-03T22:45:18.142Z,1.00
2018-12-03T22:47:45.698Z,1.50
2018-12-03T22:50:13.186Z,1.05
2018-12-03T22:52:40.624Z,1.00
2018-12-03T22:55:08.216Z,1.22
2018-12-03T22:57:35.790Z,1.20
2018-12-03T23:00:05.902Z,1.65
2018-12-03T23:02:33.493Z,1.45
2018-12-03T23:05:00.970Z,1.15
2018-12-03T23:07:28.478Z,1.30
2018-12-03T23:09:55.986Z,1.25
2018-12-03T23:12:23.579Z,1.40
2018-12-03T23:14:51.154Z,1.32
2018-12-03T23:17:18.722Z,1.32
2018-12-03T23:19:46.193Z,1.00
2018-12-03T23:22:13.678Z,0.95
2018-12-03T23:24:41.190Z,1.72
2018-12-03T23:27:08.710Z,1.90
2018-12-03T23:29:36.263Z,1.45
2018-12-03T23:32:03.706Z,1.10
2018-12-03T23:34:31.187Z,1.20
2018-12-03T23:36:58.679Z,1.42
2018-12-03T23:39:26.166Z,1.00
2018-12-03T23:41:53.638Z,1.10
2018-12-03T23:44:21.118Z,0.90
2018-12-03T23:46:48.623Z,0.88
2018-12-03T23:49:16.106Z,1.35
2018-12-03T23:51:43.646Z,1.00
2018-12-03T23:54:11.130Z,1.00
2018-12-03T23:56:38.626Z,1.00
2018-12-03T23:59:06.132Z,1.70
